sensor_id;sensor_type;location;lat;lon;timestamp;pressure;altitude;pressure_sealevel;temperature;humidity
61880;BME280;47817;52.798;27.544;2022-11-21T00:04:43;1019.9;;;-1.1;83.8
61880;BME280;47817;52.798;27.544;2022-11-21T00:09:33;1019.9;;;-1.2;83.8
61880;BME280;47817;52.798;27.544;2022-11-21T00:14:45;1019.9;;;-1.2;83.9
61880;BME280;47817;52.798;27.544;2022-11-21T00:19:07;1019.9;;;-1.2;84
61880;BME280;47817;52.798;27.544;2022-11-21T00:24:45;1019.9;;;-1.2;84.2
61880;BME280;47817;52.798;27.544;2022-11-21T00:29:17;1020;;;-1.1;84.3
61880;BME280;47817;52.798;27.544;2022-11-21T00:34:35;1020.1;;;-1;84.2
61880;BME280;47817;52.798;27.544;2022-11-21T00:39:31;1020;;;-1;84.4
61880;BME280;47817;52.798;27.544;2022-11-21T00:44:03;1019.9;;;-1;84.4
61880;BME280;47817;52.798;27.544;2022-11-21T00:49:43;1019.9;;;-1;84.4
61880;BME280;47817;52.798;27.544;2022-11-21T00:54:45;1019.9;;;-1;84.4
61880;BME280;47817;52.798;27.544;2022-11-21T00:59:39;1019.8;;;-1;84.4
61880;BME280;47817;52.798;27.544;2022-11-21T01:04:03;1019.8;;;-1;84.4
61880;BME280;47817;52.798;27.544;2022-11-21T01:09:03;1019.8;;;-1;84.4
61880;BME280;47817;52.798;27.544;2022-11-21T01:14:03;1019.8;;;-1;84.5
61880;BME280;47817;52.798;27.544;2022-11-21T01:19:43;1019.7;;;-1;84.6
61880;BME280;47817;52.798;27.544;2022-11-21T01:24:21;1019.7;;;-1;84.6
61880;BME280;47817;52.798;27.544;2022-11-21T01:29:35;1019.7;;;-1;84.5
61880;BME280;47817;52.798;27.544;2022-11-21T01:34:21;1019.7;;;-1;84.5
61880;BME280;47817;52.798;27.544;2022-11-21T01:39:47;1019.7;;;-1;84.6
61880;BME280;47817;52.798;27.544;2022-11-21T01:44:21;1019.6;;;-0.9;84.7
61880;BME280;47817;52.798;27.544;2022-11-21T01:49:25;1019.5;;;-0.9;84.7
61880;BME280;47817;52.798;27.544;2022-11-21T01:54:34;1019.5;;;-0.9;84.6
61880;BME280;47817;52.798;27.544;2022-11-21T01:59:03;1019.5;;;-0.9;84.6
61880;BME280;47817;52.798;27.544;2022-11-21T02:04:47;1019.5;;;-0.8;84.5
61880;BME280;47817;52.798;27.544;2022-11-21T02:09:48;1019.5;;;-0.8;84.4
61880;BME280;47817;52.798;27.544;2022-11-21T02:14:45;1019.6;;;-0.9;84.3
61880;BME280;47817;52.798;27.544;2022-11-21T02:19:03;1019.5;;;-0.9;84.3
61880;BME280;47817;52.798;27.544;2022-11-21T02:24:13;1019.5;;;-0.9;84.2
61880;BME280;47817;52.798;27.544;2022-11-21T02:29:03;1019.4;;;-0.9;84.2
61880;BME280;47817;52.798;27.544;2022-11-21T02:34:03;1019.3;;;-0.9;84.3
61880;BME280;47817;52.798;27.544;2022-11-21T02:39:45;1019.3;;;-0.9;84.1
61880;BME280;47817;52.798;27.544;2022-11-21T02:44:46;1019.3;;;-0.9;84.1
61880;BME280;47817;52.798;27.544;2022-11-21T02:49:03;1019.3;;;-1;84.2
61880;BME280;47817;52.798;27.544;2022-11-21T02:54:03;1019.2;;;-1;84.3
61880;BME280;47817;52.798;27.544;2022-11-21T02:59:33;1019.3;;;-1;84.4
61880;BME280;47817;52.798;27.544;2022-11-21T03:04:33;1019.3;;;-1;84.5
61880;BME280;47817;52.798;27.544;2022-11-21T03:09:15;1019.3;;;-1;84.5
61880;BME280;47817;52.798;27.544;2022-11-21T03:14:03;1019.2;;;-1;84.5
61880;BME280;47817;52.798;27.544;2022-11-21T03:19:03;1019.2;;;-1;84.5
61880;BME280;47817;52.798;27.544;2022-11-21T03:24:17;1019.1;;;-1;84.4
61880;BME280;47817;52.798;27.544;2022-11-21T03:29:03;1019.1;;;-1;84.5
61880;BME280;47817;52.798;27.544;2022-11-21T03:34:45;1019.2;;;-1;84.4
61880;BME280;47817;52.798;27.544;2022-11-21T03:39:13;1019.2;;;-1;84.4
61880;BME280;47817;52.798;27.544;2022-11-21T03:44:13;1019.2;;;-1;84.5
61880;BME280;47817;52.798;27.544;2022-11-21T03:49:11;1019.3;;;-1;84.6
61880;BME280;47817;52.798;27.544;2022-11-21T03:54:43;1019.3;;;-1;84.6
61880;BME280;47817;52.798;27.544;2022-11-21T03:59:45;1019.3;;;-1;84.6
61880;BME280;47817;52.798;27.544;2022-11-21T04:04:03;1019.3;;;-1;84.6
61880;BME280;47817;52.798;27.544;2022-11-21T04:09:13;1019.2;;;-1;84.5
61880;BME280;47817;52.798;27.544;2022-11-21T04:14:31;1019.2;;;-1;84.5
61880;BME280;47817;52.798;27.544;2022-11-21T04:19:25;1019.2;;;-1;84.6
61880;BME280;47817;52.798;27.544;2022-11-21T04:24:23;1019.3;;;-1;84.6
61880;BME280;47817;52.798;27.544;2022-11-21T04:29:13;1019.4;;;-1;84.6
61880;BME280;47817;52.798;27.544;2022-11-21T04:34:03;1019.3;;;-0.9;84.5
61880;BME280;47817;52.798;27.544;2022-11-21T04:39:33;1019.1;;;-0.9;84.5
61880;BME280;47817;52.798;27.544;2022-11-21T04:44:23;1019.1;;;-0.9;84.2
61880;BME280;47817;52.798;27.544;2022-11-21T04:49:45;1019.1;;;-1;84.4
61880;BME280;47817;52.798;27.544;2022-11-21T04:54:03;1019.1;;;-1;84.6
61880;BME280;47817;52.798;27.544;2022-11-21T04:59:03;1019.1;;;-0.9;84.5
61880;BME280;47817;52.798;27.544;2022-11-21T05:04:21;1019.1;;;-0.9;84.6
61880;BME280;47817;52.798;27.544;2022-11-21T05:09:25;1019;;;-0.8;84.5
61880;BME280;47817;52.798;27.544;2022-11-21T05:14:41;1019;;;-0.8;84.5
61880;BME280;47817;52.798;27.544;2022-11-21T05:19:13;1018.9;;;-0.8;84.5
61880;BME280;47817;52.798;27.544;2022-11-21T05:24:13;1018.7;;;-0.8;84.4
61880;BME280;47817;52.798;27.544;2022-11-21T05:29:31;1018.8;;;-0.8;84.4
61880;BME280;47817;52.798;27.544;2022-11-21T05:34:33;1018.8;;;-0.8;84.5
61880;BME280;47817;52.798;27.544;2022-11-21T05:39:21;1018.8;;;-0.8;84.5
61880;BME280;47817;52.798;27.544;2022-11-21T05:44:03;1019;;;-0.8;84.6
61880;BME280;47817;52.798;27.544;2022-11-21T05:49:19;1019;;;-0.8;84.4
61880;BME280;47817;52.798;27.544;2022-11-21T05:54:33;1018.9;;;-0.8;84.6
61880;BME280;47817;52.798;27.544;2022-11-21T05:59:33;1018.9;;;-0.7;84.6
61880;BME280;47817;52.798;27.544;2022-11-21T06:04:39;1018.9;;;-0.7;84.7
61880;BME280;47817;52.798;27.544;2022-11-21T06:09:03;1019;;;-0.7;84.7
61880;BME280;47817;52.798;27.544;2022-11-21T06:14:13;1019.1;;;-0.7;84.7
61880;BME280;47817;52.798;27.544;2022-11-21T06:19:21;1019.1;;;-0.6;84.7
61880;BME280;47817;52.798;27.544;2022-11-21T06:24:41;1019;;;-0.6;84.6
61880;BME280;47817;52.798;27.544;2022-11-21T06:29:43;1019;;;-0.5;84.6
61880;BME280;47817;52.798;27.544;2022-11-21T06:34:43;1019;;;-0.5;84.5
61880;BME280;47817;52.798;27.544;2022-11-21T06:39:03;1019;;;-0.4;84.3
61880;BME280;47817;52.798;27.544;2022-11-21T06:44:29;1019;;;-0.4;84.2
61880;BME280;47817;52.798;27.544;2022-11-21T06:49:33;1019;;;-0.4;84
61880;BME280;47817;52.798;27.544;2022-11-21T06:54:21;1019;;;-0.3;83.8
61880;BME280;47817;52.798;27.544;2022-11-21T06:59:43;1019;;;-0.2;83.5
61880;BME280;47817;52.798;27.544;2022-11-21T07:04:03;1019;;;-0.3;83.4
61880;BME280;47817;52.798;27.544;2022-11-21T07:09:33;1018.9;;;-0.2;83.2
61880;BME280;47817;52.798;27.544;2022-11-21T07:14:23;1018.8;;;-0.1;83
61880;BME280;47817;52.798;27.544;2022-11-21T07:19:45;1018.8;;;0;82.9
61880;BME280;47817;52.798;27.544;2022-11-21T07:24:13;1018.7;;;0;82.7
61880;BME280;47817;52.798;27.544;2022-11-21T07:29:13;1018.8;;;0.2;82.1
61880;BME280;47817;52.798;27.544;2022-11-21T07:34:21;1018.9;;;0.4;81.8
61880;BME280;47817;52.798;27.544;2022-11-21T07:39:35;1018.9;;;0.6;81.5
61880;BME280;47817;52.798;27.544;2022-11-21T07:44:43;1018.9;;;0.6;81.1
61880;BME280;47817;52.798;27.544;2022-11-21T07:49:45;1018.9;;;0.7;80.9
61880;BME280;47817;52.798;27.544;2022-11-21T07:54:21;1019;;;0.8;80.6
61880;BME280;47817;52.798;27.544;2022-11-21T07:59:33;1018.9;;;0.8;80.5
61880;BME280;47817;52.798;27.544;2022-11-21T08:04:33;1018.9;;;0.8;80.3
61880;BME280;47817;52.798;27.544;2022-11-21T08:09:26;1018.9;;;0.9;79.9
61880;BME280;47817;52.798;27.544;2022-11-21T08:14:45;1018.8;;;0.9;79.6
61880;BME280;47817;52.798;27.544;2022-11-21T08:19:11;1018.8;;;1;79.3
61880;BME280;47817;52.798;27.544;2022-11-21T08:24:45;1018.9;;;0.9;79.3
61880;BME280;47817;52.798;27.544;2022-11-21T08:29:45;1018.9;;;1;79.2
61880;BME280;47817;52.798;27.544;2022-11-21T08:34:45;1018.8;;;1.1;78.9
61880;BME280;47817;52.798;27.544;2022-11-21T08:39:23;1018.8;;;1.3;78.6
61880;BME280;47817;52.798;27.544;2022-11-21T08:44:03;1018.7;;;1.8;77.8
61880;BME280;47817;52.798;27.544;2022-11-21T08:49:23;1018.7;;;2.4;76.5
61880;BME280;47817;52.798;27.544;2022-11-21T08:54:35;1018.6;;;2.7;75.5
61880;BME280;47817;52.798;27.544;2022-11-21T08:59:43;1018.6;;;2.6;75.1
61880;BME280;47817;52.798;27.544;2022-11-21T09:04:45;1018.6;;;2.3;75.2
61880;BME280;47817;52.798;27.544;2022-11-21T09:09:15;1018.6;;;2.3;74.7
61880;BME280;47817;52.798;27.544;2022-11-21T09:14:05;1018.6;;;2.5;74.4
61880;BME280;47817;52.798;27.544;2022-11-21T09:19:35;1018.5;;;2.8;74.1
61880;BME280;47817;52.798;27.544;2022-11-21T09:24:09;1018.5;;;2.9;75.1
61880;BME280;47817;52.798;27.544;2022-11-21T09:29:43;1018.7;;;2.8;76.9
61880;BME280;47817;52.798;27.544;2022-11-21T09:34:13;1018.8;;;2.6;79.7
61880;BME280;47817;52.798;27.544;2022-11-21T09:39:43;1018.8;;;2.5;81.9
61880;BME280;47817;52.798;27.544;2022-11-21T09:44:28;1018.7;;;2.3;83.5
61880;BME280;47817;52.798;27.544;2022-11-21T09:49:44;1018.4;;;2.2;83.8
61880;BME280;47817;52.798;27.544;2022-11-21T09:54:22;1018.4;;;2.5;83.9
61880;BME280;47817;52.798;27.544;2022-11-21T09:59:18;1018.3;;;2.8;84.3
61880;BME280;47817;52.798;27.544;2022-11-21T10:04:23;1018.4;;;2.9;85.3
61880;BME280;47817;52.798;27.544;2022-11-21T10:09:06;1018.4;;;3.2;84.7
61880;BME280;47817;52.798;27.544;2022-11-21T10:14:50;1018.4;;;3.5;84.5
61880;BME280;47817;52.798;27.544;2022-11-21T10:19:38;1018.4;;;3.7;85.5
61880;BME280;47817;52.798;27.544;2022-11-21T10:24:19;1018.3;;;3.8;84.5
61880;BME280;47817;52.798;27.544;2022-11-21T10:29:33;1018.3;;;3.7;84.9
61880;BME280;47817;52.798;27.544;2022-11-21T10:34:36;1018.2;;;3.7;84.4
61880;BME280;47817;52.798;27.544;2022-11-21T10:39:26;1018.2;;;3.7;84.6
61880;BME280;47817;52.798;27.544;2022-11-21T10:44:45;1018.2;;;3.8;83.4
61880;BME280;47817;52.798;27.544;2022-11-21T10:49:13;1018.3;;;4;84.9
61880;BME280;47817;52.798;27.544;2022-11-21T10:55:01;1018.4;;;4.1;87.1
61880;BME280;47817;52.798;27.544;2022-11-21T10:59:24;1018.4;;;4;88.1
61880;BME280;47817;52.798;27.544;2022-11-21T11:04:33;1018.4;;;4;86.9
61880;BME280;47817;52.798;27.544;2022-11-21T11:09:21;1018.3;;;4.1;84.8
61880;BME280;47817;52.798;27.544;2022-11-21T11:14:33;1018.2;;;4;85.4
61880;BME280;47817;52.798;27.544;2022-11-21T11:19:24;1018.1;;;3.9;86
61880;BME280;47817;52.798;27.544;2022-11-21T11:24:35;1018.2;;;3.9;86.4
61880;BME280;47817;52.798;27.544;2022-11-21T11:29:40;1018.2;;;3.9;86.7
61880;BME280;47817;52.798;27.544;2022-11-21T11:34:46;1018.2;;;3.8;86.7
61880;BME280;47817;52.798;27.544;2022-11-21T11:39:15;1018.2;;;3.6;87
61880;BME280;47817;52.798;27.544;2022-11-21T11:44:40;1018.2;;;3.4;87.3
61880;BME280;47817;52.798;27.544;2022-11-21T11:49:35;1018.2;;;3.3;87.9
61880;BME280;47817;52.798;27.544;2022-11-21T11:54:28;1018.2;;;3.3;88.1
61880;BME280;47817;52.798;27.544;2022-11-21T11:59:38;1018.1;;;3.4;87.1
61880;BME280;47817;52.798;27.544;2022-11-21T12:04:16;1018.1;;;3.5;89
61880;BME280;47817;52.798;27.544;2022-11-21T12:09:49;1018;;;3.6;87.9
61880;BME280;47817;52.798;27.544;2022-11-21T12:14:29;1018;;;3.6;88.7
61880;BME280;47817;52.798;27.544;2022-11-21T12:19:33;1017.9;;;3.5;88.2
61880;BME280;47817;52.798;27.544;2022-11-21T12:24:03;1017.9;;;3.4;86.9
61880;BME280;47817;52.798;27.544;2022-11-21T12:29:05;1017.8;;;3.1;88.2
61880;BME280;47817;52.798;27.544;2022-11-21T12:34:28;1017.8;;;2.8;87.9
61880;BME280;47817;52.798;27.544;2022-11-21T12:39:43;1017.7;;;2.7;88.1
61880;BME280;47817;52.798;27.544;2022-11-21T12:44:27;1017.6;;;2.6;88.6
61880;BME280;47817;52.798;27.544;2022-11-21T12:49:51;1017.6;;;2.5;89.3
61880;BME280;47817;52.798;27.544;2022-11-21T12:54:15;1017.5;;;2.4;90.1
61880;BME280;47817;52.798;27.544;2022-11-21T12:59:49;1017.4;;;2.4;90.7
61880;BME280;47817;52.798;27.544;2022-11-21T13:04:33;1017.4;;;2.4;90
61880;BME280;47817;52.798;27.544;2022-11-21T13:09:06;1017.3;;;2.4;89.7
61880;BME280;47817;52.798;27.544;2022-11-21T13:14:37;1017.2;;;2.4;89.4
61880;BME280;47817;52.798;27.544;2022-11-21T13:19:15;1017.2;;;2.3;90.1
61880;BME280;47817;52.798;27.544;2022-11-21T13:24:56;1017.2;;;2.1;90.4
61880;BME280;47817;52.798;27.544;2022-11-21T13:29:25;1017.2;;;2;90.7
61880;BME280;47817;52.798;27.544;2022-11-21T13:34:49;1017.1;;;1.8;91.5
61880;BME280;47817;52.798;27.544;2022-11-21T13:39:26;1017;;;1.6;91.6
61880;BME280;47817;52.798;27.544;2022-11-21T13:44:27;1017;;;1.4;91.8
61880;BME280;47817;52.798;27.544;2022-11-21T13:49:38;1016.9;;;1.3;92.2
61880;BME280;47817;52.798;27.544;2022-11-21T13:54:48;1016.8;;;1.2;91.8
61880;BME280;47817;52.798;27.544;2022-11-21T13:59:28;1016.7;;;1.1;91.6
61880;BME280;47817;52.798;27.544;2022-11-21T14:04:55;1016.7;;;1;92.2
61880;BME280;47817;52.798;27.544;2022-11-21T14:09:04;1016.6;;;1;92.8
61880;BME280;47817;52.798;27.544;2022-11-21T14:14:50;1016.6;;;0.9;92.7
61880;BME280;47817;52.798;27.544;2022-11-21T14:19:37;1016.5;;;0.9;93.1
61880;BME280;47817;52.798;27.544;2022-11-21T14:24:29;1016.5;;;0.9;93.6
61880;BME280;47817;52.798;27.544;2022-11-21T14:29:49;1016.4;;;0.8;93.8
61880;BME280;47817;52.798;27.544;2022-11-21T14:34:27;1016.3;;;0.8;94
61880;BME280;47817;52.798;27.544;2022-11-21T14:39:49;1016.2;;;0.8;94
61880;BME280;47817;52.798;27.544;2022-11-21T14:44:39;1016.1;;;0.8;94.5
61880;BME280;47817;52.798;27.544;2022-11-21T14:49:35;1016.1;;;0.8;94.1
61880;BME280;47817;52.798;27.544;2022-11-21T14:54:26;1016;;;0.8;94.6
61880;BME280;47817;52.798;27.544;2022-11-21T14:59:19;1016;;;0.8;94.4
61880;BME280;47817;52.798;27.544;2022-11-21T15:04:25;1016;;;0.8;94.5
61880;BME280;47817;52.798;27.544;2022-11-21T15:09:49;1016;;;0.7;94.6
61880;BME280;47817;52.798;27.544;2022-11-21T15:14:27;1016;;;0.7;94.7
61880;BME280;47817;52.798;27.544;2022-11-21T15:19:16;1016;;;0.7;94.9
61880;BME280;47817;52.798;27.544;2022-11-21T15:24:15;1016;;;0.7;94.8
61880;BME280;47817;52.798;27.544;2022-11-21T15:29:47;1016;;;0.6;95.5
61880;BME280;47817;52.798;27.544;2022-11-21T15:34:25;1015.9;;;0.6;94.5
61880;BME280;47817;52.798;27.544;2022-11-21T15:39:41;1015.9;;;0.6;94.8
61880;BME280;47817;52.798;27.544;2022-11-21T15:44:35;1015.9;;;0.6;94.6
61880;BME280;47817;52.798;27.544;2022-11-21T15:49:15;1015.8;;;0.6;95.2
61880;BME280;47817;52.798;27.544;2022-11-21T15:54:51;1015.8;;;0.5;94.6
61880;BME280;47817;52.798;27.544;2022-11-21T15:59:51;1015.8;;;0.5;95.1
61880;BME280;47817;52.798;27.544;2022-11-21T16:04:39;1015.8;;;0.6;94.6
61880;BME280;47817;52.798;27.544;2022-11-21T16:09:27;1015.8;;;0.6;95.5
61880;BME280;47817;52.798;27.544;2022-11-21T16:14:15;1015.8;;;0.6;95.5
61880;BME280;47817;52.798;27.544;2022-11-21T16:19:11;1015.7;;;0.5;96.2
61880;BME280;47817;52.798;27.544;2022-11-21T16:24:49;1015.6;;;0.4;96.4
61880;BME280;47817;52.798;27.544;2022-11-21T16:29:27;1015.6;;;0.4;95.2
61880;BME280;47817;52.798;27.544;2022-11-21T16:34:41;1015.5;;;0.4;95.5
61880;BME280;47817;52.798;27.544;2022-11-21T16:39:09;1015.5;;;0.4;95.7
61880;BME280;47817;52.798;27.544;2022-11-21T16:44:49;1015.5;;;0.4;96.6
61880;BME280;47817;52.798;27.544;2022-11-21T16:49:25;1015.6;;;0.4;96
61880;BME280;47817;52.798;27.544;2022-11-21T16:54:39;1015.6;;;0.5;96.1
61880;BME280;47817;52.798;27.544;2022-11-21T16:59:39;1015.6;;;0.5;95.8
61880;BME280;47817;52.798;27.544;2022-11-21T17:04:03;1015.6;;;0.5;96.2
61880;BME280;47817;52.798;27.544;2022-11-21T17:09:49;1015.5;;;0.5;96.1
61880;BME280;47817;52.798;27.544;2022-11-21T17:14:49;1015.4;;;0.5;95.7
61880;BME280;47817;52.798;27.544;2022-11-21T17:19:51;1015.4;;;0.5;95.7
61880;BME280;47817;52.798;27.544;2022-11-21T17:24:29;1015.3;;;0.5;96.1
61880;BME280;47817;52.798;27.544;2022-11-21T17:29:03;1015.4;;;0.4;96.5
61880;BME280;47817;52.798;27.544;2022-11-21T17:34:25;1015.3;;;0.5;96.1
61880;BME280;47817;52.798;27.544;2022-11-21T17:39:51;1015.3;;;0.4;96.4
61880;BME280;47817;52.798;27.544;2022-11-21T17:44:27;1015.2;;;0.4;95.3
61880;BME280;47817;52.798;27.544;2022-11-21T17:49:39;1015.2;;;0.4;95.6
61880;BME280;47817;52.798;27.544;2022-11-21T17:54:17;1015.2;;;0.4;96
61880;BME280;47817;52.798;27.544;2022-11-21T17:59:51;1015.2;;;0.4;96.1
61880;BME280;47817;52.798;27.544;2022-11-21T18:04:25;1015.1;;;0.4;95.6
61880;BME280;47817;52.798;27.544;2022-11-21T18:09:31;1015;;;0.4;95.9
61880;BME280;47817;52.798;27.544;2022-11-21T18:14:17;1015;;;0.4;96.5
61880;BME280;47817;52.798;27.544;2022-11-21T18:19:29;1015;;;0.4;95.9
61880;BME280;47817;52.798;27.544;2022-11-21T18:24:51;1014.9;;;0.4;95.9
61880;BME280;47817;52.798;27.544;2022-11-21T18:29:47;1014.9;;;0.3;95.9
61880;BME280;47817;52.798;27.544;2022-11-21T18:34:47;1014.9;;;0.3;96
61880;BME280;47817;52.798;27.544;2022-11-21T18:39:03;1014.9;;;0.3;96.3
61880;BME280;47817;52.798;27.544;2022-11-21T18:44:04;1014.8;;;0.4;96.5
61880;BME280;47817;52.798;27.544;2022-11-21T18:49:29;1014.8;;;0.4;96.6
61880;BME280;47817;52.798;27.544;2022-11-21T18:54:49;1014.8;;;0.4;96.4
61880;BME280;47817;52.798;27.544;2022-11-21T18:59:15;1014.8;;;0.4;96.5
61880;BME280;47817;52.798;27.544;2022-11-21T19:04:41;1014.8;;;0.4;96.6
61880;BME280;47817;52.798;27.544;2022-11-21T19:09:03;1014.8;;;0.4;96.3
61880;BME280;47817;52.798;27.544;2022-11-21T19:14:49;1014.8;;;0.4;96.6
61880;BME280;47817;52.798;27.544;2022-11-21T19:19:25;1014.8;;;0.4;96.5
61880;BME280;47817;52.798;27.544;2022-11-21T19:24:15;1014.7;;;0.4;96.2
61880;BME280;47817;52.798;27.544;2022-11-21T19:29:37;1014.7;;;0.4;95.7
61880;BME280;47817;52.798;27.544;2022-11-21T19:34:13;1014.7;;;0.4;96.3
61880;BME280;47817;52.798;27.544;2022-11-21T19:39:03;1014.7;;;0.3;96.7
61880;BME280;47817;52.798;27.544;2022-11-21T19:44:35;1014.7;;;0.3;96.7
61880;BME280;47817;52.798;27.544;2022-11-21T19:49:27;1014.7;;;0.2;95.8
61880;BME280;47817;52.798;27.544;2022-11-21T19:54:49;1014.7;;;0.2;95.8
61880;BME280;47817;52.798;27.544;2022-11-21T19:59:23;1014.6;;;0.2;95.7
61880;BME280;47817;52.798;27.544;2022-11-21T20:04:04;1014.6;;;0.3;95.8
61880;BME280;47817;52.798;27.544;2022-11-21T20:09:23;1014.6;;;0.2;96.5
61880;BME280;47817;52.798;27.544;2022-11-21T20:14:47;1014.5;;;0.2;96.3
61880;BME280;47817;52.798;27.544;2022-11-21T20:19:47;1014.5;;;0.1;96.5
61880;BME280;47817;52.798;27.544;2022-11-21T20:24:04;1014.5;;;0;96
61880;BME280;47817;52.798;27.544;2022-11-21T20:29:03;1014.4;;;0.1;96
61880;BME280;47817;52.798;27.544;2022-11-21T20:34:33;1014.4;;;0.1;96
61880;BME280;47817;52.798;27.544;2022-11-21T20:39:31;1014.3;;;0.1;95.4
61880;BME280;47817;52.798;27.544;2022-11-21T20:44:23;1014.3;;;0.1;95.7
61880;BME280;47817;52.798;27.544;2022-11-21T20:49:03;1014.2;;;0;95.8
61880;BME280;47817;52.798;27.544;2022-11-21T20:54:03;1014.2;;;0;95.6
61880;BME280;47817;52.798;27.544;2022-11-21T20:59:33;1014.2;;;-0.1;95.3
61880;BME280;47817;52.798;27.544;2022-11-21T21:04:35;1014.2;;;-0.1;95
61880;BME280;47817;52.798;27.544;2022-11-21T21:09:47;1014.1;;;-0.1;95.1
61880;BME280;47817;52.798;27.544;2022-11-21T21:14:15;1014;;;-0.1;94.6
61880;BME280;47817;52.798;27.544;2022-11-21T21:19:03;1014;;;-0.1;94.5
61880;BME280;47817;52.798;27.544;2022-11-21T21:24:23;1014;;;-0.2;94.4
61880;BME280;47817;52.798;27.544;2022-11-21T21:29:49;1014;;;-0.3;94.3
61880;BME280;47817;52.798;27.544;2022-11-21T21:34:49;1013.9;;;-0.3;94.5
61880;BME280;47817;52.798;27.544;2022-11-21T21:39:17;1013.8;;;-0.4;94.7
61880;BME280;47817;52.798;27.544;2022-11-21T21:44:11;1013.8;;;-0.4;94.5
61880;BME280;47817;52.798;27.544;2022-11-21T21:49:37;1013.7;;;-0.4;94.3
61880;BME280;47817;52.798;27.544;2022-11-21T21:54:33;1013.6;;;-0.4;94.5
61880;BME280;47817;52.798;27.544;2022-11-21T21:59:13;1013.6;;;-0.4;94.3
61880;BME280;47817;52.798;27.544;2022-11-21T22:04:13;1013.5;;;-0.3;94.5
61880;BME280;47817;52.798;27.544;2022-11-21T22:09:03;1013.5;;;-0.3;94.3
61880;BME280;47817;52.798;27.544;2022-11-21T22:14:29;1013.4;;;-0.3;94.5
61880;BME280;47817;52.798;27.544;2022-11-21T22:19:19;1013.3;;;-0.3;94.6
61880;BME280;47817;52.798;27.544;2022-11-21T22:24:43;1013.3;;;-0.3;93.9
61880;BME280;47817;52.798;27.544;2022-11-21T22:29:13;1013.2;;;-0.4;93.6
61880;BME280;47817;52.798;27.544;2022-11-21T22:34:13;1013.1;;;-0.5;93.8
61880;BME280;47817;52.798;27.544;2022-11-21T22:39:03;1013.1;;;-0.5;94.4
61880;BME280;47817;52.798;27.544;2022-11-21T22:44:45;1013.1;;;-0.5;94.5
61880;BME280;47817;52.798;27.544;2022-11-21T22:49:45;1013.1;;;-0.5;94.3
61880;BME280;47817;52.798;27.544;2022-11-21T22:54:13;1013.1;;;-0.6;94.7
61880;BME280;47817;52.798;27.544;2022-11-21T22:59:10;1013;;;-0.6;94.3
61880;BME280;47817;52.798;27.544;2022-11-21T23:04:31;1012.9;;;-0.6;94.2
61880;BME280;47817;52.798;27.544;2022-11-21T23:09:33;1012.9;;;-0.6;94.4
61880;BME280;47817;52.798;27.544;2022-11-21T23:14:13;1012.9;;;-0.6;94.6
61880;BME280;47817;52.798;27.544;2022-11-21T23:19:03;1012.8;;;-0.6;94.7
61880;BME280;47817;52.798;27.544;2022-11-21T23:24:11;1012.8;;;-0.6;94.7
61880;BME280;47817;52.798;27.544;2022-11-21T23:29:23;1012.8;;;-0.6;94.6
61880;BME280;47817;52.798;27.544;2022-11-21T23:34:03;1012.7;;;-0.6;94.7
61880;BME280;47817;52.798;27.544;2022-11-21T23:39:43;1012.7;;;-0.7;94.7
61880;BME280;47817;52.798;27.544;2022-11-21T23:44:23;1012.7;;;-0.7;94.7
61880;BME280;47817;52.798;27.544;2022-11-21T23:49:13;1012.7;;;-0.6;94.6
61880;BME280;47817;52.798;27.544;2022-11-21T23:54:19;1012.7;;;-0.7;94.4
61880;BME280;47817;52.798;27.544;2022-11-21T23:59:25;1012.7;;;-0.7;94.4
